This is the latest recevied weather packets stored in our database for station/object OSTR-WX. If no packets are shown the sender has not sent any weather packets the latest 10 day(s).
| Time | Temp. | Humidity | Pressure | Rain* | Wind** | Luminosity | Snow |
|---|---|---|---|---|---|---|---|
| 1777712350 | 20.56° C | 49% | 1025.2 hPa | - | - | - | - |
| 1777711394 | 20° C | 51% | 1025.3 hPa | - | - | - | - |
| 1777710436 | 19.44° C | 53% | 1025.5 hPa | - | - | - | - |
| 1777709479 | 18.33° C | 58% | 1025.7 hPa | - | - | - | - |
| 1777708529 | 17.78° C | 60% | 1025.8 hPa | - | - | - | - |
| 1777708522 | 17.78° C | 60% | 1025.8 hPa | - | - | - | - |
| 1777707572 | 16.11° C | 65% | 1026.1 hPa | - | - | - | - |
| 1777707565 | 16.11° C | 65% | 1026.1 hPa | - | - | - | - |
| 1777706612 | 15° C | 68% | 1026.3 hPa | - | - | - | - |
| 1777705651 | 13.33° C | 73% | 1026.5 hPa | - | - | - | - |
| 1777704702 | 12.78° C | 75% | 1026.6 hPa | - | - | - | - |
| 1777704696 | 12.78° C | 75% | 1026.6 hPa | - | - | - | - |
| 1777703737 | 11.11° C | 79% | 1026.8 hPa | - | - | - | - |
| 1777702780 | 9.44° C | 83% | 1027.1 hPa | - | - | - | - |
| 1777701823 | 8.89° C | 84% | 1027.2 hPa | - | - | - | - |
| 1777700873 | 7.22° C | 89% | 1027.4 hPa | - | - | - | - |
| 1777700866 | 7.22° C | 89% | 1027.4 hPa | - | - | - | - |
| 1777699909 | 6.11° C | 91% | 1027.6 hPa | - | - | - | - |
| 1777698952 | 4.44° C | 94% | 1027.7 hPa | - | - | - | - |
| 1777697996 | 3.33° C | 95% | 1027.9 hPa | - | - | - | - |
| 1777697038 | 2.78° C | 96% | 1027.9 hPa | - | - | - | - |
| 1777696081 | 2.22° C | 95% | 1027.8 hPa | - | - | - | - |
| 1777695124 | 2.22° C | 95% | 1027.8 hPa | - | - | - | - |
| 1777694174 | 2.22° C | 94% | 1027.8 hPa | - | - | - | - |
| 1777694168 | 2.22° C | 94% | 1027.8 hPa | - | - | - | - |
* Rain since midnight (hover to see other rain measurements)
** Current wind speed in m/s (hover to see current wind gust speed)